Time;durP1;ratioP1;P1;durP2;ratioP2;P2;SDS_P1;SDS_P2;PMS_P1;PMS_P2;Temp;Humidity;BMP_temperature;BMP_pressure;BME280_temperature;BME280_humidity;BME280_pressure;Samples;Min_cycle;Max_cycle;Signal;HPM_P1;HPM_P2
2024/04/06 00:00:27;;;;;;;;;10.50;10.50;;;;;15.09;75.70;100933.28;2028671;27;2773212;-72
2024/04/06 00:01:40;;;;;;;;;10.50;10.50;;;;;15.07;75.81;100930.69;2039291;27;1841964;-72
2024/04/06 00:02:51;;;;;;;;;8.33;8.00;;;;;15.14;75.81;100941.81;2034241;27;3463765;-72
2024/04/06 00:04:04;;;;;;;;;11.00;10.00;;;;;15.11;76.46;100942.00;2049592;27;2791914;-71
2024/04/06 00:05:15;;;;;;;;;9.00;8.00;;;;;15.05;75.83;100929.91;2032400;27;2750299;-71
2024/04/06 00:06:25;;;;;;;;;9.00;9.00;;;;;15.08;75.79;100932.41;2031975;27;2760143;-71
2024/04/06 00:07:36;;;;;;;;;9.50;9.00;;;;;15.06;75.76;100950.16;2041384;28;2736838;-72
2024/04/06 00:08:50;;;;;;;;;8.67;8.67;;;;;15.02;75.91;100938.84;2039366;27;3467959;-72
2024/04/06 00:10:01;;;;;;;;;10.75;10.00;;;;;15.06;75.81;100945.69;2039144;27;1848255;-72
2024/04/06 00:11:14;;;;;;;;;7.67;7.67;;;;;15.01;75.98;100937.16;2042418;28;2736708;-72
2024/04/06 00:12:25;;;;;;;;;9.00;8.00;;;;;15.00;75.76;100934.56;1993783;28;2733575;-72
2024/04/06 00:13:36;;;;;;;;;8.67;7.00;;;;;15.01;75.63;100938.94;2039598;28;2748275;-71
2024/04/06 00:14:47;;;;;;;;;11.00;10.00;;;;;15.00;75.49;100946.00;2059883;27;1823262;-72
2024/04/06 00:15:58;;;;;;;;;10.00;8.50;;;;;14.97;75.55;100940.84;2030897;27;2760128;-72
2024/04/06 00:17:09;;;;;;;;;8.00;7.50;;;;;15.00;75.73;100946.00;2051710;27;2739848;-72
2024/04/06 00:18:20;;;;;;;;;13.50;8.00;;;;;15.00;75.75;100946.00;2028466;27;2775239;-71
2024/04/06 00:19:32;;;;;;;;;9.50;9.50;;;;;14.96;75.85;100937.34;2037643;27;2762799;-71
2024/04/06 00:20:43;;;;;;;;;7.67;7.67;;;;;14.97;75.67;100938.22;2034222;27;2739992;-72
2024/04/06 00:21:55;;;;;;;;;14.50;9.00;;;;;14.92;75.83;100933.16;2036542;28;2753414;-72
2024/04/06 00:23:06;;;;;;;;;10.25;9.25;;;;;14.99;75.77;100938.16;2039412;27;1848745;-72
2024/04/06 00:24:17;;;;;;;;;9.50;9.50;;;;;14.94;75.82;100935.72;2033303;27;2762781;-71
2024/04/06 00:25:28;;;;;;;;;8.50;8.50;;;;;14.93;76.22;100940.16;2047606;27;2744037;-71
2024/04/06 00:26:39;;;;;;;;;6.00;6.00;;;;;14.90;75.87;100931.50;2049244;27;2471097;-71
2024/04/06 00:27:50;;;;;;;;;9.00;9.00;;;;;14.90;75.79;100940.31;2051200;28;2741952;-72
2024/04/06 00:29:00;;;;;;;;;9.00;9.00;;;;;14.85;76.05;100927.28;2003586;27;2760654;-71
2024/04/06 00:30:11;;;;;;;;;9.00;8.00;;;;;14.93;75.63;100940.16;2068993;27;1848213;-72
2024/04/06 00:31:22;;;;;;;;;8.67;7.00;;;;;14.89;75.82;100930.63;2004578;28;2741928;-72
2024/04/06 00:32:33;;;;;;;;;9.00;6.00;;;;;14.89;75.67;100927.16;2044126;27;2746087;-72
2024/04/06 00:33:44;;;;;;;;;10.50;9.00;;;;;14.87;75.74;100929.00;2061401;27;1828478;-71
2024/04/06 00:34:55;;;;;;;;;6.67;6.00;;;;;14.83;75.90;100921.19;2034157;27;2741912;-71
2024/04/06 00:36:06;;;;;;;;;9.50;8.50;;;;;14.90;75.91;100932.38;2044830;28;2753403;-71
2024/04/06 00:37:17;;;;;;;;;10.33;8.67;;;;;14.81;75.91;100919.56;2037474;27;3483576;-71
2024/04/06 00:38:27;;;;;;;;;10.00;9.00;;;;;14.83;75.68;100917.69;2039798;27;2769518;-71
2024/04/06 00:39:39;;;;;;;;;11.80;10.20;;;;;14.82;75.85;100913.31;2050923;27;1823188;-71
2024/04/06 00:40:50;;;;;;;;;8.00;7.33;;;;;14.80;75.69;100913.41;2027695;27;2746127;-71
2024/04/06 00:42:01;;;;;;;;;10.50;10.50;;;;;14.81;75.79;100912.47;2053153;27;2772127;-71
2024/04/06 00:43:12;;;;;;;;;8.25;7.75;;;;;14.81;75.89;100915.13;2064794;27;1821148;-72
2024/04/06 00:44:24;;;;;;;;;9.00;8.33;;;;;14.84;75.80;100914.13;2032907;27;3444984;-71
2024/04/06 00:45:34;;;;;;;;;10.00;9.00;;;;;14.81;75.82;100914.25;2032059;27;2761750;-71
2024/04/06 00:46:46;;;;;;;;;7.25;7.25;;;;;14.82;75.44;100913.31;2040108;27;1807633;-71
2024/04/06 00:47:57;;;;;;;;;10.00;9.00;;;;;14.80;76.22;100907.25;2032035;27;2766934;-71
2024/04/06 00:49:08;;;;;;;;;15.00;8.50;;;;;14.76;75.67;100908.31;2036893;27;2781510;-71
2024/04/06 00:50:19;;;;;;;;;7.00;7.00;;;;;14.81;75.74;100920.41;2037489;27;3463778;-72
2024/04/06 00:51:30;;;;;;;;;9.00;8.50;;;;;14.77;75.72;100918.81;2033903;27;2742970;-71
2024/04/06 00:52:41;;;;;;;;;11.00;10.00;;;;;14.73;75.85;100915.50;2037048;27;2773207;-71
2024/04/06 00:53:52;;;;;;;;;10.67;7.67;;;;;14.78;75.71;100923.19;2047906;27;3485695;-71
2024/04/06 00:55:03;;;;;;;;;8.67;8.67;;;;;14.78;75.88;100928.50;2025364;28;2742000;-72
2024/04/06 00:56:17;;;;;;;;;9.83;8.17;;;;;14.72;75.68;100919.06;2053668;28;1819049;-71
2024/04/06 00:57:29;;;;;;;;;10.00;8.50;;;;;14.68;75.49;100913.97;2018161;28;1835710;-71
2024/04/06 00:58:41;;;;;;;;;10.00;8.67;;;;;14.69;75.65;100921.84;2017986;28;3481504;-72
2024/04/06 00:59:52;;;;;;;;;8.00;8.00;;;;;14.71;75.85;100925.28;2042559;27;1812779;-71
2024/04/06 01:01:03;;;;;;;;;8.00;7.00;;;;;14.68;75.79;100919.28;2035424;27;2491917;-71
2024/04/06 01:02:14;;;;;;;;;6.00;5.67;;;;;14.66;75.98;100913.19;2051535;27;2750268;-71
2024/04/06 01:03:26;;;;;;;;;7.00;6.50;;;;;14.63;75.77;100899.19;2060753;27;2739869;-71
2024/04/06 01:04:36;;;;;;;;;11.00;9.00;;;;;14.71;75.89;100913.84;2033914;27;2765214;-72
2024/04/06 01:05:47;;;;;;;;;8.67;8.00;;;;;14.66;75.75;100902.63;2048588;27;2737875;-71
2024/04/06 01:06:58;;;;;;;;;8.67;7.33;;;;;14.62;75.76;100892.19;2038968;28;3447109;-71
2024/04/06 01:08:10;;;;;;;;;7.75;5.75;;;;;14.63;75.63;100891.25;2054866;27;2733595;-71
2024/04/06 01:09:24;;;;;;;;;9.17;7.83;;;;;14.68;75.83;100898.09;2060636;27;2737765;-72
2024/04/06 01:10:37;;;;;;;;;5.17;4.50;;;;;14.67;75.86;100896.41;2044905;27;2736714;-71
2024/04/06 01:11:47;;;;;;;;;8.00;5.67;;;;;14.62;75.65;100886.88;2018692;27;3440241;-71
2024/04/06 01:12:59;;;;;;;;;8.33;7.00;;;;;14.66;75.61;100889.41;2056381;27;2747232;-71
2024/04/06 01:14:10;;;;;;;;;9.67;8.33;;;;;14.67;75.92;100893.78;2024779;28;3474211;-71
2024/04/06 01:15:22;;;;;;;;;6.25;6.25;;;;;14.69;75.82;100894.56;2058045;27;1832127;-71
2024/04/06 01:16:34;;;;;;;;;6.67;6.67;;;;;14.68;76.00;100892.81;2036116;27;2745052;-71
2024/04/06 01:17:47;;;;;;;;;8.17;7.67;;;;;14.59;75.79;100873.81;2052096;28;2736797;-71
2024/04/06 01:18:58;;;;;;;;;6.33;6.00;;;;;14.68;75.91;100887.53;2002771;28;3459089;-71
2024/04/06 01:20:12;;;;;;;;;6.75;6.75;;;;;14.62;75.72;100884.25;2052745;27;2733635;-71
2024/04/06 01:21:23;;;;;;;;;8.33;8.33;;;;;14.66;75.71;100882.31;2035363;27;3448146;-71
2024/04/06 01:22:34;;;;;;;;;10.00;8.67;;;;;14.65;75.46;100882.38;2043187;27;3471053;-71
2024/04/06 01:23:45;;;;;;;;;11.00;6.67;;;;;14.67;75.75;100884.03;2034327;27;3475275;-72
2024/04/06 01:24:56;;;;;;;;;6.00;5.33;;;;;14.65;75.73;100879.72;2035852;27;2738841;-71
2024/04/06 01:26:07;;;;;;;;;7.50;6.00;;;;;14.66;75.53;100876.16;2041009;28;1814907;-72
2024/04/06 01:27:18;;;;;;;;;7.33;7.33;;;;;14.62;75.73;100878.94;2019955;28;2746138;-71
2024/04/06 01:28:29;;;;;;;;;10.00;8.00;;;;;14.61;75.69;100871.09;2035382;28;3476306;-71
2024/04/06 01:29:40;;;;;;;;;8.00;6.33;;;;;14.66;75.68;100876.16;2036462;27;2750354;-72
2024/04/06 01:30:51;;;;;;;;;7.00;6.67;;;;;14.64;75.62;100878.91;2037923;28;3458569;-71
2024/04/06 01:32:02;;;;;;;;;6.67;6.67;;;;;14.58;75.79;100871.25;2040301;27;2730577;-71
2024/04/06 01:33:12;;;;;;;;;8.67;5.67;;;;;14.57;75.69;100870.38;2037173;28;2746203;-71
2024/04/06 01:34:23;;;;;;;;;5.33;5.00;;;;;14.65;75.52;100882.38;2032510;28;2742047;-71
2024/04/06 01:35:34;;;;;;;;;9.67;7.67;;;;;14.57;75.63;100875.66;2039891;27;2743481;-71
2024/04/06 01:36:48;;;;;;;;;7.80;7.40;;;;;14.63;75.64;100890.41;2059052;27;2743056;-72
2024/04/06 01:37:58;;;;;;;;;5.67;5.67;;;;;14.57;75.86;100882.78;2035073;27;3453397;-71
2024/04/06 01:39:11;;;;;;;;;9.67;7.33;;;;;14.63;75.65;100896.56;2050037;27;3453462;-71
2024/04/06 01:40:21;;;;;;;;;10.00;7.33;;;;;14.57;75.83;100885.41;2042660;27;3465192;-71
2024/04/06 01:41:32;;;;;;;;;5.00;5.00;;;;;14.61;75.67;100893.13;2049278;27;2742007;-72
2024/04/06 01:42:43;;;;;;;;;8.33;5.33;;;;;14.60;75.77;100879.97;2048165;27;2747151;-72
2024/04/06 01:43:54;;;;;;;;;6.00;6.00;;;;;14.56;75.65;100863.41;2039361;27;2746112;-71
2024/04/06 01:45:05;;;;;;;;;5.00;5.00;;;;;14.60;75.69;100864.09;2039485;27;2746110;-71
2024/04/06 01:46:17;;;;;;;;;5.50;5.25;;;;;14.59;75.71;100852.63;2053165;27;1810713;-71
2024/04/06 01:47:27;;;;;;;;;6.67;6.00;;;;;14.60;75.69;100851.72;2035590;27;2748189;-71
2024/04/06 01:48:38;;;;;;;;;8.00;7.00;;;;;14.60;75.70;100849.06;2051358;27;3455476;-71
2024/04/06 01:49:49;;;;;;;;;7.00;7.00;;;;;14.61;75.55;100857.88;2037452;28;3440922;-71
2024/04/06 01:51:00;;;;;;;;;9.00;6.33;;;;;14.57;75.87;100857.16;2021638;28;2734708;-71
2024/04/06 01:52:11;;;;;;;;;6.67;6.67;;;;;14.60;75.81;100859.66;2052549;27;2735745;-71
2024/04/06 01:53:21;;;;;;;;;7.00;6.00;;;;;14.54;75.68;100859.97;2012682;27;2746082;-72
2024/04/06 01:54:32;;;;;;;;;4.00;4.00;;;;;14.56;75.63;100859.88;2059972;27;2745072;-72
2024/04/06 01:55:45;;;;;;;;;7.83;7.33;;;;;14.52;75.42;100857.38;2061215;27;2729475;-71
2024/04/06 01:56:56;;;;;;;;;9.00;9.00;;;;;14.53;75.46;100858.25;2009248;27;3462767;-72
2024/04/06 01:58:07;;;;;;;;;7.67;6.00;;;;;14.54;75.72;100854.69;2059770;27;2739882;-71
2024/04/06 01:59:18;;;;;;;;;11.00;7.33;;;;;14.52;75.55;100859.16;2002883;28;3469013;-71
2024/04/06 02:00:28;;;;;;;;;8.33;6.00;;;;;14.56;75.62;100863.41;2018836;28;3466941;-71
2024/04/06 02:01:41;;;;;;;;;8.25;7.75;;;;;14.51;75.35;100852.19;2051442;28;2737770;-71
2024/04/06 02:02:51;;;;;;;;;6.67;6.67;;;;;14.53;75.48;100852.94;2019594;28;2745049;-72
2024/04/06 02:04:02;;;;;;;;;6.00;6.00;;;;;14.49;75.27;100851.41;2051162;27;2736720;-72
2024/04/06 02:05:13;;;;;;;;;5.00;4.33;;;;;14.47;75.63;100853.25;2035419;27;2748229;-71
2024/04/06 02:06:24;;;;;;;;;7.33;7.33;;;;;14.47;75.41;100853.25;2046869;27;2747161;-71
2024/04/06 02:07:34;;;;;;;;;7.67;7.00;;;;;14.46;75.20;100856.81;2036791;27;2746195;-71
2024/04/06 02:08:46;;;;;;;;;9.00;8.00;;;;;14.42;75.17;100850.81;2058313;27;1820133;-72
2024/04/06 02:09:57;;;;;;;;;7.67;7.33;;;;;14.48;75.44;100854.97;2034464;27;3451808;-71
2024/04/06 02:11:08;;;;;;;;;7.33;7.33;;;;;14.48;75.30;100855.81;2060190;27;2732688;-71
2024/04/06 02:12:18;;;;;;;;;6.33;6.33;;;;;14.48;75.50;100858.47;2001450;28;3451843;-71
2024/04/06 02:13:30;;;;;;;;;9.00;8.33;;;;;14.51;75.29;100870.69;2050012;28;1844066;-71
2024/04/06 02:14:40;;;;;;;;;8.33;8.33;;;;;14.47;75.29;100863.84;1996635;28;3445103;-71
2024/04/06 02:15:51;;;;;;;;;6.50;6.50;;;;;14.51;75.05;100870.69;2030115;28;2464867;-71
2024/04/06 02:17:03;;;;;;;;;5.00;5.00;;;;;14.50;75.23;100867.19;2042403;27;2746167;-71
2024/04/06 02:18:13;;;;;;;;;8.00;7.67;;;;;14.42;75.17;100852.63;2025044;28;3455404;-71
2024/04/06 02:19:25;;;;;;;;;8.00;7.00;;;;;14.43;75.52;100843.72;2043039;27;2744113;-72
2024/04/06 02:20:39;;;;;;;;;2.60;2.20;;;;;14.49;75.37;100857.50;2061915;27;2737761;-71
2024/04/06 02:21:50;;;;;;;;;9.33;7.67;;;;;14.38;75.29;100834.25;2026703;27;1831500;-71
2024/04/06 02:23:01;;;;;;;;;7.00;7.00;;;;;14.39;75.07;100840.41;2038084;27;2737769;-71
2024/04/06 02:24:12;;;;;;;;;6.67;5.33;;;;;14.42;75.42;100842.88;2034635;27;3461710;-71
2024/04/06 02:25:23;;;;;;;;;8.00;8.00;;;;;14.47;75.24;100850.63;2050929;28;2740887;-72
2024/04/06 02:26:36;;;;;;;;;9.17;8.00;;;;;14.45;75.36;100847.16;2053466;27;2735689;-72
2024/04/06 02:27:49;;;;;;;;;6.17;6.17;;;;;14.40;75.21;100842.09;2036132;27;2743004;-72
2024/04/06 02:29:02;;;;;;;;;8.33;8.33;;;;;14.35;75.13;100838.81;2036552;27;2730521;-72
2024/04/06 02:30:13;;;;;;;;;5.00;5.00;;;;;14.35;75.05;100839.66;2015687;28;1807610;-72
2024/04/06 02:31:24;;;;;;;;;11.00;8.67;;;;;14.40;75.32;100850.03;2004370;28;3481482;-72
2024/04/06 02:32:35;;;;;;;;;8.00;7.00;;;;;14.35;75.19;100841.44;2040603;27;2744021;-72
2024/04/06 02:33:46;;;;;;;;;6.67;6.00;;;;;14.30;74.93;100839.03;2048561;27;3460661;-72
2024/04/06 02:34:57;;;;;;;;;9.67;8.67;;;;;14.28;74.67;100832.97;2048977;27;3471113;-71
2024/04/06 02:36:08;;;;;;;;;4.00;4.00;;;;;14.28;75.10;100833.81;2059603;27;2739865;-71
2024/04/06 02:37:18;;;;;;;;;9.33;7.67;;;;;14.27;75.07;100831.25;2011726;27;3451322;-71
2024/04/06 02:38:29;;;;;;;;;7.33;6.33;;;;;14.28;75.18;100838.25;2059028;27;3452359;-71
2024/04/06 02:39:40;;;;;;;;;6.00;5.67;;;;;14.27;74.87;100832.09;2051820;27;2742965;-72
2024/04/06 02:40:51;;;;;;;;;7.00;7.00;;;;;14.23;74.96;100829.69;2050678;28;2739845;-72
2024/04/06 02:42:03;;;;;;;;;10.25;9.25;;;;;14.27;75.00;100833.91;2018182;27;1846130;-71
2024/04/06 02:43:13;;;;;;;;;8.67;8.67;;;;;14.25;74.90;100827.81;2033964;27;3451271;-72
2024/04/06 02:44:24;;;;;;;;;6.00;6.00;;;;;14.27;75.21;100839.19;2044610;27;2745052;-71
2024/04/06 02:45:35;;;;;;;;;8.00;8.00;;;;;14.24;75.10;100828.75;2039020;28;3452364;-71
2024/04/06 02:46:46;;;;;;;;;9.00;5.33;;;;;14.16;75.25;100807.97;2037092;27;2746137;-71
2024/04/06 02:47:58;;;;;;;;;8.50;7.00;;;;;14.17;75.14;100818.47;2055199;28;1821278;-72
2024/04/06 02:49:08;;;;;;;;;8.33;7.33;;;;;14.16;75.10;100813.25;2025878;27;2743101;-72
2024/04/06 02:50:19;;;;;;;;;8.00;7.00;;;;;14.16;74.92;100819.41;2051340;27;3454484;-71
2024/04/06 02:51:30;;;;;;;;;6.00;6.00;;;;;14.12;75.06;100809.06;2046942;27;2746099;-72
2024/04/06 02:52:41;;;;;;;;;7.33;7.33;;;;;14.06;75.21;100802.25;2065436;27;1815978;-72
2024/04/06 02:53:51;;;;;;;;;8.00;8.00;;;;;14.14;75.17;100813.34;2011945;27;2481514;-72
2024/04/06 02:55:06;;;;;;;;;9.67;9.67;;;;;14.06;75.10;100802.25;2040542;28;3495027;-71
2024/04/06 02:56:17;;;;;;;;;10.67;8.00;;;;;14.07;75.10;100799.53;2018179;27;3481494;-72
2024/04/06 02:57:29;;;;;;;;;6.67;6.67;;;;;14.06;75.12;100803.13;2050040;28;2732566;-71
2024/04/06 02:58:39;;;;;;;;;10.00;9.00;;;;;14.07;75.15;100804.81;2009506;27;3481500;-71
2024/04/06 02:59:50;;;;;;;;;6.00;6.00;;;;;14.08;75.15;100800.41;2051095;27;2748189;-71
2024/04/06 03:01:01;;;;;;;;;12.00;10.00;;;;;14.06;75.15;100802.25;2039808;27;2782535;-71
2024/04/06 03:02:13;;;;;;;;;11.50;11.25;;;;;14.12;75.09;100811.69;2062785;27;1833178;-72
2024/04/06 03:03:24;;;;;;;;;7.00;7.00;;;;;14.01;75.12;100804.25;2032385;27;2735634;-71
2024/04/06 03:04:35;;;;;;;;;7.00;7.00;;;;;14.08;75.14;100816.25;2042776;28;2744055;-71
2024/04/06 03:05:48;;;;;;;;;7.33;7.33;;;;;14.10;75.46;100814.38;2060488;27;2735697;-71
2024/04/06 03:07:00;;;;;;;;;8.00;6.00;;;;;14.07;75.29;100811.91;2028103;27;3464847;-71
2024/04/06 03:08:11;;;;;;;;;7.67;7.67;;;;;14.08;75.33;100810.97;2035173;27;2739855;-71
2024/04/06 03:09:21;;;;;;;;;7.33;6.00;;;;;13.99;75.17;100792.91;2033527;27;2734760;-71
2024/04/06 03:10:32;;;;;;;;;8.00;8.00;;;;;14.02;74.76;100795.41;2038367;28;3457555;-71
2024/04/06 03:11:44;;;;;;;;;7.33;7.33;;;;;14.05;75.24;100800.56;2032800;28;3446074;-71
2024/04/06 03:12:55;;;;;;;;;8.67;7.67;;;;;13.99;75.36;100791.13;2026538;27;3448149;-71
2024/04/06 03:14:06;;;;;;;;;8.67;8.00;;;;;13.98;75.18;100788.53;2050344;27;2733595;-72
2024/04/06 03:15:17;;;;;;;;;8.00;6.00;;;;;13.98;75.39;100788.53;2058707;27;2739330;-71
2024/04/06 03:16:27;;;;;;;;;8.00;7.00;;;;;13.95;75.40;100784.28;2010897;27;3450330;-71
2024/04/06 03:17:38;;;;;;;;;8.00;8.00;;;;;13.98;75.02;100783.25;2050635;27;2732573;-71
2024/04/06 03:18:49;;;;;;;;;8.67;7.00;;;;;13.94;75.21;100780.78;2048806;27;3442985;-71
2024/04/06 03:20:00;;;;;;;;;8.67;6.00;;;;;13.99;75.22;100784.97;2048116;27;2748189;-71
2024/04/06 03:21:11;;;;;;;;;5.00;5.00;;;;;14.02;75.32;100793.63;2049096;27;2752352;-71
2024/04/06 03:22:22;;;;;;;;;8.00;6.00;;;;;13.94;75.19;100777.25;2032917;27;2746099;-71
2024/04/06 03:23:32;;;;;;;;;6.00;6.00;;;;;13.97;75.23;100782.41;2041782;27;2748141;-71
2024/04/06 03:24:43;;;;;;;;;5.00;5.00;;;;;13.94;75.25;100778.13;2050616;27;2748174;-72
2024/04/06 03:25:54;;;;;;;;;8.67;7.67;;;;;13.97;75.13;100792.13;2060360;27;2738791;-71
2024/04/06 03:27:08;;;;;;;;;7.00;7.00;;;;;13.97;75.23;100793.00;2037017;27;2727352;-71
2024/04/06 03:28:19;;;;;;;;;7.33;5.00;;;;;14.00;75.26;100794.63;2010552;27;2737864;-71
2024/04/06 03:29:29;;;;;;;;;6.33;6.33;;;;;13.97;75.31;100797.41;2034727;27;2743010;-71
2024/04/06 03:30:40;;;;;;;;;6.00;5.00;;;;;13.99;75.10;100796.41;2051818;27;2750328;-72
2024/04/06 03:31:51;;;;;;;;;7.00;5.33;;;;;13.95;75.32;100793.03;2048167;27;3465861;-72
2024/04/06 03:33:02;;;;;;;;;6.67;6.00;;;;;13.97;75.23;100794.75;2034579;27;2743049;-72
2024/04/06 03:34:14;;;;;;;;;7.75;7.00;;;;;14.01;75.02;100799.84;2059492;27;2742973;-71
2024/04/06 03:35:24;;;;;;;;;6.67;5.67;;;;;13.95;75.18;100789.56;2001693;27;2745142;-71
2024/04/06 03:36:35;;;;;;;;;9.33;6.00;;;;;13.92;75.07;100790.56;2034043;27;2744158;-71
2024/04/06 03:37:47;;;;;;;;;8.00;6.00;;;;;13.95;75.20;100789.56;2042581;28;2745048;-72
2024/04/06 03:39:02;;;;;;;;;6.83;6.67;;;;;13.98;75.15;100799.09;2021599;28;2742997;-71
2024/04/06 03:40:16;;;;;;;;;7.00;6.00;;;;;13.93;75.20;100786.09;2020818;28;2740874;-71
2024/04/06 03:41:27;;;;;;;;;7.00;7.00;;;;;13.94;75.15;100790.47;1993915;28;3458582;-71
2024/04/06 03:42:38;;;;;;;;;8.00;7.00;;;;;13.90;75.19;100786.28;2033725;28;2740921;-72
2024/04/06 03:43:50;;;;;;;;;8.50;7.25;;;;;13.89;75.05;100790.69;2042852;28;2739864;-72
2024/04/06 03:45:00;;;;;;;;;7.33;6.33;;;;;13.91;75.18;100788.84;2018208;28;2746119;-71
2024/04/06 03:46:11;;;;;;;;;6.67;6.67;;;;;13.88;75.17;100785.50;2033283;28;2746090;-71
2024/04/06 03:47:22;;;;;;;;;7.33;6.00;;;;;13.94;75.26;100793.13;2030950;28;2746135;-72
2024/04/06 03:48:34;;;;;;;;;9.00;6.00;;;;;13.92;75.13;100790.56;2042505;28;2722136;-72
2024/04/06 03:49:44;;;;;;;;;6.67;6.00;;;;;13.93;75.14;100788.75;2009562;28;2743058;-72
2024/04/06 03:50:55;;;;;;;;;5.00;5.00;;;;;13.88;75.47;100782.84;2034187;28;2752502;-72
2024/04/06 03:52:06;;;;;;;;;7.00;5.67;;;;;13.89;75.16;100782.75;2022513;28;2742980;-72
2024/04/06 03:53:29;;;;;;;;;6.00;5.33;;;;;13.92;75.34;100785.28;2031426;28;2740964;-72
2024/04/06 03:54:39;;;;;;;;;5.33;5.00;;;;;13.84;75.21;100772.41;2012672;28;2743082;-72
2024/04/06 03:55:50;;;;;;;;;6.67;6.67;;;;;13.89;75.33;100787.19;2034632;28;2747138;-72
2024/04/06 03:57:02;;;;;;;;;7.00;7.00;;;;;13.87;75.33;100776.69;2043144;28;2746091;-72
2024/04/06 03:58:14;;;;;;;;;4.00;4.00;;;;;13.80;74.97;100765.53;2017611;28;2751388;-72
2024/04/06 03:59:27;;;;;;;;;4.67;4.50;;;;;13.82;75.20;100770.78;2046117;28;2742021;-72
2024/04/06 04:00:37;;;;;;;;;5.33;5.33;;;;;13.82;75.05;100766.34;1995091;28;2750293;-72
2024/04/06 04:01:48;;;;;;;;;5.00;5.00;;;;;13.91;75.44;100777.41;2028932;28;2741324;-72
2024/04/06 04:02:59;;;;;;;;;5.00;4.00;;;;;13.79;74.98;100758.56;2024892;28;2744078;-72
2024/04/06 04:04:10;;;;;;;;;5.33;5.00;;;;;13.88;74.76;100773.13;2025492;28;2743017;-72
2024/04/06 04:05:21;;;;;;;;;5.00;5.00;;;;;13.84;74.98;100767.13;2033096;28;2752345;-72
2024/04/06 04:06:32;;;;;;;;;4.00;4.00;;;;;13.85;75.35;100752.16;2027200;28;3465884;-72
2024/04/06 04:07:43;;;;;;;;;6.67;5.33;;;;;13.83;75.01;100754.84;2044513;28;2752355;-72
2024/04/06 04:08:54;;;;;;;;;7.00;5.00;;;;;13.86;74.98;100750.34;1997123;28;2749302;-72
2024/04/06 04:10:07;;;;;;;;;4.00;4.00;;;;;13.86;75.01;100752.97;2045762;28;2729502;-72
2024/04/06 04:11:18;;;;;;;;;6.33;5.00;;;;;13.84;74.85;100747.78;1995714;28;3467968;-72
2024/04/06 04:12:29;;;;;;;;;4.33;4.00;;;;;13.82;74.67;100747.00;2035336;28;2746198;-72
2024/04/06 04:13:43;;;;;;;;;4.17;4.17;;;;;13.81;74.66;100740.84;2045246;28;2744050;-72
2024/04/06 04:14:53;;;;;;;;;4.67;4.00;;;;;13.81;74.83;100745.28;1995955;28;2740928;-72
2024/04/06 04:16:04;;;;;;;;;3.33;3.33;;;;;13.83;74.77;100746.03;2035776;28;2750246;-72
2024/04/06 04:17:15;;;;;;;;;5.00;5.00;;;;;13.91;74.83;100750.97;2018192;28;2742978;-72
2024/04/06 04:18:26;;;;;;;;;6.00;4.33;;;;;13.82;74.82;100728.50;2051240;28;2736720;-72
2024/04/06 04:19:36;;;;;;;;;3.67;3.67;;;;;13.82;75.08;100733.78;1997392;28;2750369;-72
2024/04/06 04:20:47;;;;;;;;;4.33;4.33;;;;;13.81;75.00;100730.28;2036230;28;2746111;-72
2024/04/06 04:21:59;;;;;;;;;4.00;3.00;;;;;13.84;74.58;100731.94;2044399;28;2754455;-72
2024/04/06 04:23:09;;;;;;;;;5.00;5.00;;;;;13.84;74.74;100730.16;2018869;28;2744202;-72
2024/04/06 04:24:20;;;;;;;;;4.00;3.33;;;;;13.82;74.58;100725.88;2029357;28;2749267;-72
2024/04/06 04:25:32;;;;;;;;;4.00;3.00;;;;;13.91;74.57;100736.00;2044634;28;2754432;-72
2024/04/06 04:26:45;;;;;;;;;4.00;3.33;;;;;13.89;74.80;100729.94;2044831;28;2737754;-72
2024/04/06 04:28:00;;;;;;;;;1.67;1.67;;;;;13.85;74.36;100725.72;2022462;28;2733643;-72
2024/04/06 04:29:10;;;;;;;;;4.00;4.00;;;;;13.87;74.50;100725.63;1996730;28;2752403;-72
2024/04/06 04:30:22;;;;;;;;;4.67;3.00;;;;;13.86;74.42;100721.28;2043013;28;2735690;-72
2024/04/06 04:31:35;;;;;;;;;3.33;3.33;;;;;13.90;74.46;100728.16;2016619;28;2744008;-72
2024/04/06 04:32:45;;;;;;;;;3.00;3.00;;;;;13.84;74.45;100724.00;1988820;28;2753401;-72
2024/04/06 04:33:56;;;;;;;;;4.00;4.00;;;;;13.92;74.64;100731.56;2044212;28;2740227;-72
2024/04/06 04:35:09;;;;;;;;;4.33;4.00;;;;;13.88;74.69;100717.63;2045966;28;2734649;-72
2024/04/06 04:36:20;;;;;;;;;3.00;3.00;;;;;13.89;74.31;100724.63;1995514;28;2748698;-72
2024/04/06 04:37:31;;;;;;;;;3.00;3.00;;;;;13.94;74.47;100729.69;2047245;28;2730505;-72
2024/04/06 04:38:41;;;;;;;;;3.33;3.33;;;;;13.93;74.48;100728.84;2018525;28;2750272;-72
2024/04/06 04:39:52;;;;;;;;;2.00;2.00;;;;;13.86;74.63;100714.22;2043788;28;2744012;-72
2024/04/06 04:41:03;;;;;;;;;3.33;3.00;;;;;13.88;74.46;100715.00;1995881;28;2754450;-72
2024/04/06 04:42:15;;;;;;;;;1.75;1.75;;;;;13.93;74.28;100723.56;2037134;28;2736716;-71
2024/04/06 04:43:28;;;;;;;;;5.17;3.00;;;;;13.92;74.68;100724.50;2014995;28;2739858;-71
2024/04/06 04:44:41;;;;;;;;;3.00;3.00;;;;;13.91;74.29;100727.19;2014765;28;2735698;-71
2024/04/06 04:45:52;;;;;;;;;3.67;3.67;;;;;13.88;74.20;100722.91;1990857;28;2746102;-71
2024/04/06 04:47:03;;;;;;;;;3.00;3.00;;;;;13.93;74.08;100734.13;2034917;28;2750264;-72
2024/04/06 04:48:15;;;;;;;;;2.75;2.75;;;;;13.98;74.01;100739.19;2043820;28;2749236;-72
2024/04/06 04:49:28;;;;;;;;;3.17;3.17;;;;;13.92;73.96;100721.88;2031366;28;2735682;-71
2024/04/06 04:50:41;;;;;;;;;2.83;2.00;;;;;13.91;73.86;100722.78;2021583;28;2741974;-71
2024/04/06 04:51:55;;;;;;;;;2.33;2.17;;;;;13.91;73.93;100722.78;2021022;28;2744025;-72
2024/04/06 04:53:09;;;;;;;;;3.83;3.83;;;;;13.97;73.83;100728.69;2023004;28;2737770;-71
2024/04/06 04:54:20;;;;;;;;;5.00;4.67;;;;;13.92;73.93;100721.88;1996043;28;2748733;-72
2024/04/06 04:55:30;;;;;;;;;5.33;4.00;;;;;13.95;73.99;100726.97;2019566;28;2749286;-72
2024/04/06 04:56:42;;;;;;;;;3.00;3.00;;;;;13.93;73.57;100720.91;2051721;28;2737840;-71
2024/04/06 04:57:55;;;;;;;;;4.17;3.67;;;;;13.94;73.87;100722.63;2028221;28;2741936;-71
2024/04/06 04:59:08;;;;;;;;;1.83;1.83;;;;;13.92;74.09;100721.88;2030240;27;2731559;-71
2024/04/06 05:00:19;;;;;;;;;5.00;5.00;;;;;13.90;73.97;100710.47;2007960;27;2746497;-71
2024/04/06 05:01:30;;;;;;;;;5.33;4.00;;;;;13.93;73.91;100713.00;2028741;28;2752478;-72
2024/04/06 05:02:40;;;;;;;;;4.00;4.00;;;;;13.89;73.95;100702.66;2025587;28;2754477;-71
2024/04/06 05:03:52;;;;;;;;;4.25;4.25;;;;;13.94;73.97;100714.72;2043580;28;2744039;-71
2024/04/06 05:05:03;;;;;;;;;4.67;4.00;;;;;13.89;73.68;100700.88;2020843;28;2746135;-71
2024/04/06 05:06:14;;;;;;;;;5.67;5.33;;;;;13.89;73.63;100700.00;2023900;28;3461687;-71
2024/04/06 05:07:26;;;;;;;;;6.25;3.00;;;;;13.87;73.87;100701.88;2043685;28;2737765;-71
2024/04/06 05:08:36;;;;;;;;;3.00;3.00;;;;;13.92;73.71;100713.94;2034547;27;2750420;-71
2024/04/06 05:09:47;;;;;;;;;6.00;4.33;;;;;13.94;73.83;100722.63;2040527;28;3460672;-71
2024/04/06 05:10:58;;;;;;;;;6.67;3.67;;;;;13.87;73.80;100713.28;2019553;28;2746176;-71
2024/04/06 05:12:09;;;;;;;;;2.67;2.67;;;;;13.90;73.61;100715.75;2051189;28;2736733;-71
2024/04/06 05:13:22;;;;;;;;;4.00;4.00;;;;;13.87;73.67;100704.50;2028992;28;2737270;-71
2024/04/06 05:14:36;;;;;;;;;3.33;3.33;;;;;13.91;73.43;100720.13;2022071;28;2745087;-71
2024/04/06 05:15:53;;;;;;;;;4.00;4.00;;;;;13.90;73.36;100718.41;1995943;28;2749219;-71
2024/04/06 05:17:03;;;;;;;;;4.00;4.00;;;;;13.89;73.38;100716.72;2019372;28;2737762;-71
2024/04/06 05:18:15;;;;;;;;;3.00;3.00;;;;;13.92;73.54;100721.88;2044226;28;2741404;-71
2024/04/06 05:19:25;;;;;;;;;3.00;3.00;;;;;13.85;73.52;100709.88;2018698;28;2739859;-71
2024/04/06 05:20:36;;;;;;;;;4.00;3.33;;;;;13.84;73.64;100705.50;2036590;28;2736773;-71
2024/04/06 05:21:47;;;;;;;;;3.00;3.00;;;;;13.84;73.45;100702.88;2019268;28;2748207;-71
2024/04/06 05:22:58;;;;;;;;;6.00;5.00;;;;;13.90;73.52;100713.13;2043140;28;2747154;-71